Kinrooi, Belgium
Current Conditions -  °F | °C
As of 2:25 AM on Tuesday 21 Oct 2014 (Local Time) from EBBL Reporting Station
Few Clouds Few Clouds  
Wind Chill: 52°   Ceiling: Unl
Heat Index: 52°   Visibility: 6mi
Dew Point: 50°   Wind: 10mph
Humidity: 94%   Direction: 220°SW
Pressure: 29.91"   Gusts: NA
Location:  51.15°N, 5.74°E
Report Text: EBBL 210025Z 22009KT 9999 FEW120 11/10 Q1013 BLU
Loading
Personal Weather Stations






























Interactive Weather Map
Tropical Storm Tracking
New forecast layout! Learn more

10-Day Weather Forecast

Advertisements
Track Severe Weather on mobile